sensor_id;sensor_type;location;lat;lon;timestamp;P1;durP1;ratioP1;P2;durP2;ratioP2
29902;SDS011;30288;50.514;9.678;2024-03-08T00:00:37;45.03;;;26.45;;
29902;SDS011;30288;50.514;9.678;2024-03-08T00:02:44;46.42;;;26.13;;
29902;SDS011;30288;50.514;9.678;2024-03-08T00:04:52;44.67;;;27.35;;
29902;SDS011;30288;50.514;9.678;2024-03-08T00:06:56;51.45;;;28.05;;
29902;SDS011;30288;50.514;9.678;2024-03-08T00:09:04;52.00;;;28.67;;
29902;SDS011;30288;50.514;9.678;2024-03-08T00:11:10;53.78;;;30.35;;
29902;SDS011;30288;50.514;9.678;2024-03-08T00:13:17;51.53;;;29.23;;
29902;SDS011;30288;50.514;9.678;2024-03-08T00:15:22;51.22;;;28.65;;
29902;SDS011;30288;50.514;9.678;2024-03-08T00:17:28;57.85;;;28.90;;
29902;SDS011;30288;50.514;9.678;2024-03-08T00:19:35;51.10;;;28.35;;
29902;SDS011;30288;50.514;9.678;2024-03-08T00:21:41;51.92;;;26.95;;
29902;SDS011;30288;50.514;9.678;2024-03-08T00:23:47;50.65;;;27.13;;
29902;SDS011;30288;50.514;9.678;2024-03-08T00:25:52;48.35;;;26.23;;
29902;SDS011;30288;50.514;9.678;2024-03-08T00:27:58;47.78;;;26.27;;
29902;SDS011;30288;50.514;9.678;2024-03-08T00:30:05;45.88;;;26.92;;
29902;SDS011;30288;50.514;9.678;2024-03-08T00:32:12;47.72;;;25.05;;
29902;SDS011;30288;50.514;9.678;2024-03-08T00:34:15;53.78;;;28.02;;
29902;SDS011;30288;50.514;9.678;2024-03-08T00:36:20;49.92;;;26.88;;
29902;SDS011;30288;50.514;9.678;2024-03-08T00:38:23;53.45;;;28.40;;
29902;SDS011;30288;50.514;9.678;2024-03-08T00:40:31;50.78;;;27.65;;
29902;SDS011;30288;50.514;9.678;2024-03-08T00:42:36;49.58;;;27.42;;
29902;SDS011;30288;50.514;9.678;2024-03-08T00:44:43;47.55;;;25.55;;
29902;SDS011;30288;50.514;9.678;2024-03-08T00:46:50;54.03;;;27.50;;
29902;SDS011;30288;50.514;9.678;2024-03-08T00:48:56;53.22;;;27.48;;
29902;SDS011;30288;50.514;9.678;2024-03-08T00:51:04;50.10;;;27.00;;
29902;SDS011;30288;50.514;9.678;2024-03-08T00:53:07;49.92;;;26.42;;
29902;SDS011;30288;50.514;9.678;2024-03-08T00:55:13;50.17;;;25.63;;
29902;SDS011;30288;50.514;9.678;2024-03-08T00:57:18;51.17;;;29.30;;
29902;SDS011;30288;50.514;9.678;2024-03-08T00:59:23;51.55;;;27.23;;
29902;SDS011;30288;50.514;9.678;2024-03-08T01:01:29;48.63;;;26.52;;
29902;SDS011;30288;50.514;9.678;2024-03-08T01:03:37;68.13;;;36.10;;
29902;SDS011;30288;50.514;9.678;2024-03-08T01:05:42;59.38;;;31.73;;
29902;SDS011;30288;50.514;9.678;2024-03-08T01:07:48;53.33;;;29.95;;
29902;SDS011;30288;50.514;9.678;2024-03-08T01:09:53;66.90;;;35.92;;
29902;SDS011;30288;50.514;9.678;2024-03-08T01:11:59;59.65;;;31.05;;
29902;SDS011;30288;50.514;9.678;2024-03-08T01:14:04;52.53;;;30.73;;
29902;SDS011;30288;50.514;9.678;2024-03-08T01:16:09;56.42;;;31.08;;
29902;SDS011;30288;50.514;9.678;2024-03-08T01:18:17;58.45;;;30.67;;
29902;SDS011;30288;50.514;9.678;2024-03-08T01:20:25;53.15;;;29.25;;
29902;SDS011;30288;50.514;9.678;2024-03-08T01:22:33;55.58;;;28.95;;
29902;SDS011;30288;50.514;9.678;2024-03-08T01:24:39;53.08;;;30.23;;
29902;SDS011;30288;50.514;9.678;2024-03-08T01:26:44;53.45;;;29.08;;
29902;SDS011;30288;50.514;9.678;2024-03-08T01:28:49;50.78;;;28.80;;
29902;SDS011;30288;50.514;9.678;2024-03-08T01:30:54;53.90;;;28.50;;
29902;SDS011;30288;50.514;9.678;2024-03-08T01:33:00;49.20;;;27.70;;
29902;SDS011;30288;50.514;9.678;2024-03-08T01:35:06;57.85;;;30.35;;
29902;SDS011;30288;50.514;9.678;2024-03-08T01:37:16;51.70;;;29.42;;
29902;SDS011;30288;50.514;9.678;2024-03-08T01:39:21;54.78;;;28.05;;
29902;SDS011;30288;50.514;9.678;2024-03-08T01:41:27;52.88;;;29.80;;
29902;SDS011;30288;50.514;9.678;2024-03-08T01:43:32;54.78;;;28.02;;
29902;SDS011;30288;50.514;9.678;2024-03-08T01:45:37;57.25;;;29.75;;
29902;SDS011;30288;50.514;9.678;2024-03-08T01:47:43;61.30;;;28.77;;
29902;SDS011;30288;50.514;9.678;2024-03-08T01:49:51;56.38;;;29.52;;
29902;SDS011;30288;50.514;9.678;2024-03-08T01:51:57;57.70;;;28.92;;
29902;SDS011;30288;50.514;9.678;2024-03-08T01:54:05;62.97;;;31.02;;
29902;SDS011;30288;50.514;9.678;2024-03-08T01:56:12;56.30;;;29.88;;
29902;SDS011;30288;50.514;9.678;2024-03-08T01:58:18;54.85;;;28.88;;
29902;SDS011;30288;50.514;9.678;2024-03-08T02:00:24;58.03;;;28.58;;
29902;SDS011;30288;50.514;9.678;2024-03-08T02:02:31;55.58;;;28.65;;
29902;SDS011;30288;50.514;9.678;2024-03-08T02:04:38;56.72;;;30.27;;
29902;SDS011;30288;50.514;9.678;2024-03-08T02:06:44;60.30;;;29.20;;
29902;SDS011;30288;50.514;9.678;2024-03-08T02:08:48;60.03;;;30.30;;
29902;SDS011;30288;50.514;9.678;2024-03-08T02:10:56;64.72;;;32.55;;
29902;SDS011;30288;50.514;9.678;2024-03-08T02:13:01;57.58;;;30.65;;
29902;SDS011;30288;50.514;9.678;2024-03-08T02:15:07;59.10;;;31.17;;
29902;SDS011;30288;50.514;9.678;2024-03-08T02:17:13;61.08;;;31.65;;
29902;SDS011;30288;50.514;9.678;2024-03-08T02:19:19;58.05;;;29.88;;
29902;SDS011;30288;50.514;9.678;2024-03-08T02:21:24;65.18;;;31.95;;
29902;SDS011;30288;50.514;9.678;2024-03-08T02:23:30;62.92;;;31.98;;
29902;SDS011;30288;50.514;9.678;2024-03-08T02:25:37;65.82;;;31.90;;
29902;SDS011;30288;50.514;9.678;2024-03-08T02:27:40;59.33;;;30.10;;
29902;SDS011;30288;50.514;9.678;2024-03-08T02:29:45;63.65;;;31.95;;
29902;SDS011;30288;50.514;9.678;2024-03-08T02:31:51;61.65;;;31.10;;
29902;SDS011;30288;50.514;9.678;2024-03-08T02:33:57;59.58;;;30.83;;
29902;SDS011;30288;50.514;9.678;2024-03-08T02:36:03;63.40;;;31.85;;
29902;SDS011;30288;50.514;9.678;2024-03-08T02:38:12;65.47;;;33.10;;
29902;SDS011;30288;50.514;9.678;2024-03-08T02:40:20;69.75;;;31.52;;
29902;SDS011;30288;50.514;9.678;2024-03-08T02:42:26;62.90;;;33.10;;
29902;SDS011;30288;50.514;9.678;2024-03-08T02:44:31;65.20;;;31.92;;
29902;SDS011;30288;50.514;9.678;2024-03-08T02:46:38;65.50;;;31.73;;
29902;SDS011;30288;50.514;9.678;2024-03-08T02:48:46;62.95;;;31.05;;
29902;SDS011;30288;50.514;9.678;2024-03-08T02:50:53;59.63;;;30.38;;
29902;SDS011;30288;50.514;9.678;2024-03-08T02:52:58;60.17;;;30.98;;
29902;SDS011;30288;50.514;9.678;2024-03-08T02:55:07;67.82;;;32.88;;
29902;SDS011;30288;50.514;9.678;2024-03-08T02:57:17;62.35;;;32.70;;
29902;SDS011;30288;50.514;9.678;2024-03-08T02:59:23;61.70;;;31.92;;
29902;SDS011;30288;50.514;9.678;2024-03-08T03:01:28;57.78;;;30.08;;
29902;SDS011;30288;50.514;9.678;2024-03-08T03:03:30;63.90;;;31.30;;
29902;SDS011;30288;50.514;9.678;2024-03-08T03:05:37;60.50;;;29.88;;
29902;SDS011;30288;50.514;9.678;2024-03-08T03:07:49;66.45;;;31.80;;
29902;SDS011;30288;50.514;9.678;2024-03-08T03:09:56;63.50;;;30.98;;
29902;SDS011;30288;50.514;9.678;2024-03-08T03:12:05;59.15;;;29.63;;
29902;SDS011;30288;50.514;9.678;2024-03-08T03:14:13;54.03;;;28.20;;
29902;SDS011;30288;50.514;9.678;2024-03-08T03:16:18;57.28;;;28.25;;
29902;SDS011;30288;50.514;9.678;2024-03-08T03:18:24;61.67;;;30.15;;
29902;SDS011;30288;50.514;9.678;2024-03-08T03:20:29;61.10;;;30.63;;
29902;SDS011;30288;50.514;9.678;2024-03-08T03:22:45;62.10;;;31.10;;
29902;SDS011;30288;50.514;9.678;2024-03-08T03:24:53;62.05;;;30.52;;
29902;SDS011;30288;50.514;9.678;2024-03-08T03:26:59;64.18;;;30.90;;
29902;SDS011;30288;50.514;9.678;2024-03-08T03:29:15;66.53;;;31.73;;
29902;SDS011;30288;50.514;9.678;2024-03-08T03:31:21;64.72;;;31.00;;
29902;SDS011;30288;50.514;9.678;2024-03-08T03:33:27;66.30;;;32.92;;
29902;SDS011;30288;50.514;9.678;2024-03-08T03:35:33;69.20;;;32.80;;
29902;SDS011;30288;50.514;9.678;2024-03-08T03:37:40;70.53;;;32.63;;
29902;SDS011;30288;50.514;9.678;2024-03-08T03:39:53;69.82;;;33.28;;
29902;SDS011;30288;50.514;9.678;2024-03-08T03:41:58;70.80;;;33.92;;
29902;SDS011;30288;50.514;9.678;2024-03-08T03:44:04;67.47;;;33.92;;
29902;SDS011;30288;50.514;9.678;2024-03-08T03:46:13;68.80;;;33.58;;
29902;SDS011;30288;50.514;9.678;2024-03-08T03:48:19;70.35;;;33.90;;
29902;SDS011;30288;50.514;9.678;2024-03-08T03:50:23;74.25;;;35.15;;
29902;SDS011;30288;50.514;9.678;2024-03-08T03:52:32;70.28;;;33.88;;
29902;SDS011;30288;50.514;9.678;2024-03-08T03:54:34;65.88;;;31.85;;
29902;SDS011;30288;50.514;9.678;2024-03-08T03:56:40;62.92;;;32.42;;
29902;SDS011;30288;50.514;9.678;2024-03-08T03:58:46;66.65;;;32.30;;
29902;SDS011;30288;50.514;9.678;2024-03-08T04:00:55;69.28;;;34.08;;
29902;SDS011;30288;50.514;9.678;2024-03-08T04:03:03;69.43;;;33.08;;
29902;SDS011;30288;50.514;9.678;2024-03-08T04:05:10;68.22;;;34.00;;
29902;SDS011;30288;50.514;9.678;2024-03-08T04:07:16;70.10;;;33.60;;
29902;SDS011;30288;50.514;9.678;2024-03-08T04:09:21;72.80;;;35.08;;
29902;SDS011;30288;50.514;9.678;2024-03-08T04:11:26;75.63;;;33.25;;
29902;SDS011;30288;50.514;9.678;2024-03-08T04:13:37;64.00;;;32.08;;
29902;SDS011;30288;50.514;9.678;2024-03-08T04:15:43;66.72;;;32.45;;
29902;SDS011;30288;50.514;9.678;2024-03-08T04:17:50;66.72;;;32.50;;
29902;SDS011;30288;50.514;9.678;2024-03-08T04:19:58;64.85;;;33.10;;
29902;SDS011;30288;50.514;9.678;2024-03-08T04:22:06;68.57;;;31.95;;
29902;SDS011;30288;50.514;9.678;2024-03-08T04:24:11;70.95;;;34.55;;
29902;SDS011;30288;50.514;9.678;2024-03-08T04:26:18;66.93;;;33.10;;
29902;SDS011;30288;50.514;9.678;2024-03-08T04:28:23;67.45;;;32.78;;
29902;SDS011;30288;50.514;9.678;2024-03-08T04:30:28;71.15;;;32.95;;
29902;SDS011;30288;50.514;9.678;2024-03-08T04:32:34;73.40;;;32.88;;
29902;SDS011;30288;50.514;9.678;2024-03-08T04:34:39;73.53;;;33.15;;
29902;SDS011;30288;50.514;9.678;2024-03-08T04:36:49;66.28;;;33.28;;
29902;SDS011;30288;50.514;9.678;2024-03-08T04:38:55;67.13;;;32.58;;
29902;SDS011;30288;50.514;9.678;2024-03-08T04:41:01;69.60;;;32.70;;
29902;SDS011;30288;50.514;9.678;2024-03-08T04:43:07;67.85;;;33.63;;
29902;SDS011;30288;50.514;9.678;2024-03-08T04:45:13;72.43;;;34.45;;
29902;SDS011;30288;50.514;9.678;2024-03-08T04:47:18;71.22;;;32.45;;
29902;SDS011;30288;50.514;9.678;2024-03-08T04:49:24;70.60;;;34.58;;
29902;SDS011;30288;50.514;9.678;2024-03-08T04:51:29;77.88;;;34.72;;
29902;SDS011;30288;50.514;9.678;2024-03-08T04:53:38;74.15;;;34.70;;
29902;SDS011;30288;50.514;9.678;2024-03-08T04:55:43;75.13;;;35.17;;
29902;SDS011;30288;50.514;9.678;2024-03-08T04:57:49;78.80;;;34.92;;
29902;SDS011;30288;50.514;9.678;2024-03-08T04:59:54;72.28;;;33.92;;
29902;SDS011;30288;50.514;9.678;2024-03-08T05:02:00;76.45;;;37.05;;
29902;SDS011;30288;50.514;9.678;2024-03-08T05:04:06;74.40;;;33.25;;
29902;SDS011;30288;50.514;9.678;2024-03-08T05:06:11;81.07;;;35.80;;
29902;SDS011;30288;50.514;9.678;2024-03-08T05:08:16;73.88;;;35.22;;
29902;SDS011;30288;50.514;9.678;2024-03-08T05:10:25;77.60;;;36.63;;
29902;SDS011;30288;50.514;9.678;2024-03-08T05:12:30;69.97;;;34.22;;
29902;SDS011;30288;50.514;9.678;2024-03-08T05:14:35;75.18;;;35.53;;
29902;SDS011;30288;50.514;9.678;2024-03-08T05:16:41;77.63;;;35.65;;
29902;SDS011;30288;50.514;9.678;2024-03-08T05:18:51;82.55;;;36.50;;
29902;SDS011;30288;50.514;9.678;2024-03-08T05:20:58;69.90;;;34.50;;
29902;SDS011;30288;50.514;9.678;2024-03-08T05:23:06;87.60;;;37.97;;
29902;SDS011;30288;50.514;9.678;2024-03-08T05:25:11;83.32;;;38.38;;
29902;SDS011;30288;50.514;9.678;2024-03-08T05:27:19;77.55;;;38.08;;
29902;SDS011;30288;50.514;9.678;2024-03-08T05:29:24;91.47;;;39.42;;
29902;SDS011;30288;50.514;9.678;2024-03-08T05:31:31;80.18;;;38.47;;
29902;SDS011;30288;50.514;9.678;2024-03-08T05:33:47;81.15;;;37.95;;
29902;SDS011;30288;50.514;9.678;2024-03-08T05:35:50;81.22;;;37.63;;
29902;SDS011;30288;50.514;9.678;2024-03-08T05:37:56;79.22;;;36.42;;
29902;SDS011;30288;50.514;9.678;2024-03-08T05:40:02;83.55;;;37.38;;
29902;SDS011;30288;50.514;9.678;2024-03-08T05:42:20;77.13;;;36.35;;
29902;SDS011;30288;50.514;9.678;2024-03-08T05:44:25;74.97;;;36.10;;
29902;SDS011;30288;50.514;9.678;2024-03-08T05:46:32;78.65;;;36.83;;
29902;SDS011;30288;50.514;9.678;2024-03-08T05:48:38;71.90;;;36.00;;
29902;SDS011;30288;50.514;9.678;2024-03-08T05:50:44;83.63;;;37.38;;
29902;SDS011;30288;50.514;9.678;2024-03-08T05:52:49;78.32;;;36.22;;
29902;SDS011;30288;50.514;9.678;2024-03-08T05:54:55;79.63;;;37.72;;
29902;SDS011;30288;50.514;9.678;2024-03-08T05:57:00;79.03;;;35.75;;
29902;SDS011;30288;50.514;9.678;2024-03-08T05:59:08;86.97;;;36.92;;
29902;SDS011;30288;50.514;9.678;2024-03-08T06:01:15;86.50;;;37.03;;
29902;SDS011;30288;50.514;9.678;2024-03-08T06:03:20;80.32;;;37.00;;
29902;SDS011;30288;50.514;9.678;2024-03-08T06:05:26;80.97;;;36.55;;
29902;SDS011;30288;50.514;9.678;2024-03-08T06:07:29;75.75;;;35.63;;
29902;SDS011;30288;50.514;9.678;2024-03-08T06:09:34;81.90;;;37.05;;
29902;SDS011;30288;50.514;9.678;2024-03-08T06:11:39;74.43;;;34.67;;
29902;SDS011;30288;50.514;9.678;2024-03-08T06:13:45;72.47;;;35.47;;
29902;SDS011;30288;50.514;9.678;2024-03-08T06:15:54;74.97;;;35.92;;
29902;SDS011;30288;50.514;9.678;2024-03-08T06:17:59;80.45;;;37.45;;
29902;SDS011;30288;50.514;9.678;2024-03-08T06:20:08;86.53;;;37.53;;
29902;SDS011;30288;50.514;9.678;2024-03-08T06:22:15;78.68;;;36.10;;
29902;SDS011;30288;50.514;9.678;2024-03-08T06:24:21;78.85;;;36.28;;
29902;SDS011;30288;50.514;9.678;2024-03-08T06:26:27;81.88;;;38.35;;
29902;SDS011;30288;50.514;9.678;2024-03-08T06:28:35;77.32;;;35.17;;
29902;SDS011;30288;50.514;9.678;2024-03-08T06:30:40;75.05;;;34.65;;
29902;SDS011;30288;50.514;9.678;2024-03-08T06:32:48;80.03;;;36.53;;
29902;SDS011;30288;50.514;9.678;2024-03-08T06:34:53;79.60;;;35.70;;
29902;SDS011;30288;50.514;9.678;2024-03-08T06:36:59;85.68;;;37.78;;
29902;SDS011;30288;50.514;9.678;2024-03-08T06:39:05;72.75;;;35.17;;
29902;SDS011;30288;50.514;9.678;2024-03-08T06:41:11;74.93;;;34.80;;
29902;SDS011;30288;50.514;9.678;2024-03-08T06:43:17;79.22;;;36.20;;
29902;SDS011;30288;50.514;9.678;2024-03-08T06:45:23;78.80;;;35.58;;
29902;SDS011;30288;50.514;9.678;2024-03-08T06:47:30;78.28;;;35.92;;
29902;SDS011;30288;50.514;9.678;2024-03-08T06:49:39;73.68;;;36.05;;
29902;SDS011;30288;50.514;9.678;2024-03-08T06:51:44;86.35;;;37.63;;
29902;SDS011;30288;50.514;9.678;2024-03-08T06:53:50;75.90;;;35.88;;
29902;SDS011;30288;50.514;9.678;2024-03-08T06:55:55;82.57;;;38.10;;
29902;SDS011;30288;50.514;9.678;2024-03-08T06:58:01;79.72;;;39.00;;
29902;SDS011;30288;50.514;9.678;2024-03-08T07:00:07;75.93;;;35.80;;
29902;SDS011;30288;50.514;9.678;2024-03-08T07:02:21;82.38;;;39.67;;
29902;SDS011;30288;50.514;9.678;2024-03-08T07:04:27;78.57;;;39.05;;
29902;SDS011;30288;50.514;9.678;2024-03-08T07:06:37;80.32;;;37.92;;
29902;SDS011;30288;50.514;9.678;2024-03-08T07:08:43;79.90;;;39.20;;
29902;SDS011;30288;50.514;9.678;2024-03-08T07:10:48;71.57;;;37.42;;
29902;SDS011;30288;50.514;9.678;2024-03-08T07:12:53;75.82;;;37.72;;
29902;SDS011;30288;50.514;9.678;2024-03-08T07:14:59;80.10;;;39.83;;
29902;SDS011;30288;50.514;9.678;2024-03-08T07:17:05;79.55;;;38.67;;
29902;SDS011;30288;50.514;9.678;2024-03-08T07:19:11;71.55;;;36.47;;
29902;SDS011;30288;50.514;9.678;2024-03-08T07:21:17;75.03;;;37.00;;
29902;SDS011;30288;50.514;9.678;2024-03-08T07:23:25;75.03;;;36.17;;
29902;SDS011;30288;50.514;9.678;2024-03-08T07:25:43;69.75;;;34.67;;
29902;SDS011;30288;50.514;9.678;2024-03-08T07:27:48;67.65;;;33.97;;
29902;SDS011;30288;50.514;9.678;2024-03-08T07:29:55;65.93;;;34.35;;
29902;SDS011;30288;50.514;9.678;2024-03-08T07:32:05;66.60;;;33.47;;
29902;SDS011;30288;50.514;9.678;2024-03-08T07:34:22;62.38;;;32.63;;
29902;SDS011;30288;50.514;9.678;2024-03-08T07:36:28;57.17;;;31.02;;
29902;SDS011;30288;50.514;9.678;2024-03-08T07:38:36;59.38;;;30.55;;
29902;SDS011;30288;50.514;9.678;2024-03-08T07:40:42;59.00;;;28.63;;
29902;SDS011;30288;50.514;9.678;2024-03-08T07:42:50;49.95;;;28.70;;
29902;SDS011;30288;50.514;9.678;2024-03-08T07:44:55;42.97;;;25.63;;
29902;SDS011;30288;50.514;9.678;2024-03-08T07:47:01;44.92;;;24.95;;
29902;SDS011;30288;50.514;9.678;2024-03-08T07:49:11;44.83;;;24.77;;
29902;SDS011;30288;50.514;9.678;2024-03-08T07:51:19;39.67;;;23.58;;
29902;SDS011;30288;50.514;9.678;2024-03-08T07:53:26;38.55;;;23.15;;
29902;SDS011;30288;50.514;9.678;2024-03-08T07:55:34;41.30;;;22.95;;
29902;SDS011;30288;50.514;9.678;2024-03-08T07:57:42;35.60;;;22.27;;
29902;SDS011;30288;50.514;9.678;2024-03-08T07:59:49;38.78;;;21.25;;
29902;SDS011;30288;50.514;9.678;2024-03-08T08:01:55;40.38;;;22.23;;
29902;SDS011;30288;50.514;9.678;2024-03-08T08:04:01;39.25;;;20.95;;
29902;SDS011;30288;50.514;9.678;2024-03-08T08:06:07;34.20;;;21.02;;
29902;SDS011;30288;50.514;9.678;2024-03-08T08:08:17;31.50;;;20.02;;
29902;SDS011;30288;50.514;9.678;2024-03-08T08:10:23;32.30;;;19.92;;
29902;SDS011;30288;50.514;9.678;2024-03-08T08:12:33;34.47;;;20.77;;
29902;SDS011;30288;50.514;9.678;2024-03-08T08:14:38;32.88;;;20.35;;
29902;SDS011;30288;50.514;9.678;2024-03-08T08:16:44;34.60;;;19.95;;
29902;SDS011;30288;50.514;9.678;2024-03-08T08:18:52;34.72;;;19.10;;
29902;SDS011;30288;50.514;9.678;2024-03-08T08:21:00;33.13;;;19.67;;
29902;SDS011;30288;50.514;9.678;2024-03-08T08:23:08;32.85;;;19.83;;
29902;SDS011;30288;50.514;9.678;2024-03-08T08:25:14;31.67;;;17.88;;
29902;SDS011;30288;50.514;9.678;2024-03-08T08:27:22;30.77;;;18.17;;
29902;SDS011;30288;50.514;9.678;2024-03-08T08:29:31;31.17;;;17.98;;
29902;SDS011;30288;50.514;9.678;2024-03-08T08:31:37;30.17;;;18.77;;
29902;SDS011;30288;50.514;9.678;2024-03-08T08:33:42;34.50;;;18.85;;
29902;SDS011;30288;50.514;9.678;2024-03-08T08:35:50;31.00;;;18.73;;
29902;SDS011;30288;50.514;9.678;2024-03-08T08:37:56;29.27;;;17.67;;
29902;SDS011;30288;50.514;9.678;2024-03-08T08:40:01;29.02;;;17.33;;
29902;SDS011;30288;50.514;9.678;2024-03-08T08:42:11;31.38;;;18.63;;
29902;SDS011;30288;50.514;9.678;2024-03-08T08:44:17;30.67;;;18.38;;
29902;SDS011;30288;50.514;9.678;2024-03-08T08:48:28;30.13;;;18.25;;
29902;SDS011;30288;50.514;9.678;2024-03-08T08:50:33;33.83;;;18.23;;
29902;SDS011;30288;50.514;9.678;2024-03-08T08:52:39;32.70;;;19.23;;
29902;SDS011;30288;50.514;9.678;2024-03-08T08:54:45;32.03;;;18.65;;
29902;SDS011;30288;50.514;9.678;2024-03-08T08:56:51;27.52;;;17.58;;
29902;SDS011;30288;50.514;9.678;2024-03-08T08:58:57;31.13;;;18.83;;
29902;SDS011;30288;50.514;9.678;2024-03-08T09:01:02;31.33;;;18.27;;
29902;SDS011;30288;50.514;9.678;2024-03-08T09:03:12;29.15;;;17.85;;
29902;SDS011;30288;50.514;9.678;2024-03-08T09:05:18;30.33;;;18.20;;
29902;SDS011;30288;50.514;9.678;2024-03-08T09:07:23;30.15;;;17.70;;
29902;SDS011;30288;50.514;9.678;2024-03-08T09:09:29;30.80;;;18.00;;
29902;SDS011;30288;50.514;9.678;2024-03-08T09:11:35;31.20;;;17.52;;
29902;SDS011;30288;50.514;9.678;2024-03-08T09:13:44;27.40;;;17.90;;
29902;SDS011;30288;50.514;9.678;2024-03-08T09:15:50;28.23;;;18.10;;
29902;SDS011;30288;50.514;9.678;2024-03-08T09:17:56;27.45;;;17.05;;
29902;SDS011;30288;50.514;9.678;2024-03-08T09:20:04;26.13;;;17.25;;
29902;SDS011;30288;50.514;9.678;2024-03-08T09:22:12;29.45;;;16.58;;
29902;SDS011;30288;50.514;9.678;2024-03-08T09:24:17;26.27;;;16.50;;
29902;SDS011;30288;50.514;9.678;2024-03-08T09:26:23;28.52;;;17.38;;
29902;SDS011;30288;50.514;9.678;2024-03-08T09:28:30;26.15;;;17.17;;
29902;SDS011;30288;50.514;9.678;2024-03-08T09:30:36;32.22;;;17.13;;
29902;SDS011;30288;50.514;9.678;2024-03-08T09:32:46;29.23;;;17.65;;
29902;SDS011;30288;50.514;9.678;2024-03-08T09:34:53;30.02;;;18.13;;
29902;SDS011;30288;50.514;9.678;2024-03-08T09:37:01;27.65;;;17.15;;
29902;SDS011;30288;50.514;9.678;2024-03-08T09:39:06;26.40;;;16.42;;
29902;SDS011;30288;50.514;9.678;2024-03-08T09:41:18;22.00;;;15.52;;
29902;SDS011;30288;50.514;9.678;2024-03-08T09:43:23;28.17;;;17.33;;
29902;SDS011;30288;50.514;9.678;2024-03-08T09:45:29;27.33;;;16.65;;
29902;SDS011;30288;50.514;9.678;2024-03-08T09:47:41;25.45;;;16.63;;
29902;SDS011;30288;50.514;9.678;2024-03-08T09:49:47;24.23;;;16.08;;
29902;SDS011;30288;50.514;9.678;2024-03-08T09:51:52;25.15;;;16.05;;
29902;SDS011;30288;50.514;9.678;2024-03-08T09:54:00;25.70;;;15.85;;
29902;SDS011;30288;50.514;9.678;2024-03-08T09:56:18;25.48;;;15.15;;
29902;SDS011;30288;50.514;9.678;2024-03-08T09:58:24;21.40;;;13.82;;
29902;SDS011;30288;50.514;9.678;2024-03-08T10:00:55;23.05;;;14.82;;
29902;SDS011;30288;50.514;9.678;2024-03-08T10:03:00;22.27;;;14.10;;
29902;SDS011;30288;50.514;9.678;2024-03-08T10:05:07;24.95;;;15.05;;
29902;SDS011;30288;50.514;9.678;2024-03-08T10:07:14;27.95;;;14.80;;
29902;SDS011;30288;50.514;9.678;2024-03-08T10:09:22;24.00;;;14.73;;
29902;SDS011;30288;50.514;9.678;2024-03-08T10:11:27;22.42;;;15.07;;
29902;SDS011;30288;50.514;9.678;2024-03-08T10:13:32;24.73;;;14.65;;
29902;SDS011;30288;50.514;9.678;2024-03-08T10:15:39;27.40;;;16.20;;
29902;SDS011;30288;50.514;9.678;2024-03-08T10:17:45;25.40;;;15.57;;
29902;SDS011;30288;50.514;9.678;2024-03-08T10:19:51;24.52;;;16.05;;
29902;SDS011;30288;50.514;9.678;2024-03-08T10:21:57;23.60;;;15.80;;
29902;SDS011;30288;50.514;9.678;2024-03-08T10:24:02;24.05;;;15.55;;
29902;SDS011;30288;50.514;9.678;2024-03-08T10:26:14;23.75;;;15.93;;
29902;SDS011;30288;50.514;9.678;2024-03-08T10:28:22;24.23;;;15.60;;
29902;SDS011;30288;50.514;9.678;2024-03-08T10:30:29;26.38;;;16.45;;
29902;SDS011;30288;50.514;9.678;2024-03-08T10:32:35;24.83;;;16.13;;
29902;SDS011;30288;50.514;9.678;2024-03-08T10:34:40;24.02;;;16.02;;
29902;SDS011;30288;50.514;9.678;2024-03-08T10:36:46;24.50;;;15.35;;
29902;SDS011;30288;50.514;9.678;2024-03-08T10:38:56;24.65;;;15.68;;
29902;SDS011;30288;50.514;9.678;2024-03-08T10:41:03;24.50;;;15.93;;
29902;SDS011;30288;50.514;9.678;2024-03-08T10:43:16;26.98;;;15.75;;
29902;SDS011;30288;50.514;9.678;2024-03-08T10:45:34;23.52;;;15.25;;
29902;SDS011;30288;50.514;9.678;2024-03-08T10:47:43;26.25;;;16.48;;
29902;SDS011;30288;50.514;9.678;2024-03-08T10:50:13;22.35;;;15.32;;
29902;SDS011;30288;50.514;9.678;2024-03-08T10:52:25;24.70;;;16.25;;
29902;SDS011;30288;50.514;9.678;2024-03-08T10:54:31;23.52;;;15.85;;
29902;SDS011;30288;50.514;9.678;2024-03-08T10:56:44;26.42;;;16.48;;
29902;SDS011;30288;50.514;9.678;2024-03-08T10:58:55;24.25;;;15.70;;
29902;SDS011;30288;50.514;9.678;2024-03-08T11:01:03;25.25;;;16.13;;
29902;SDS011;30288;50.514;9.678;2024-03-08T11:03:21;23.77;;;15.75;;
29902;SDS011;30288;50.514;9.678;2024-03-08T11:05:53;26.08;;;15.00;;
29902;SDS011;30288;50.514;9.678;2024-03-08T11:07:58;23.00;;;15.02;;
29902;SDS011;30288;50.514;9.678;2024-03-08T11:10:06;26.73;;;16.40;;
29902;SDS011;30288;50.514;9.678;2024-03-08T11:12:25;22.20;;;15.85;;
29902;SDS011;30288;50.514;9.678;2024-03-08T11:14:46;25.85;;;15.52;;
29902;SDS011;30288;50.514;9.678;2024-03-08T11:16:52;22.70;;;15.57;;
29902;SDS011;30288;50.514;9.678;2024-03-08T11:18:57;21.77;;;15.00;;
29902;SDS011;30288;50.514;9.678;2024-03-08T11:21:12;22.02;;;14.52;;
29902;SDS011;30288;50.514;9.678;2024-03-08T11:23:17;27.65;;;15.30;;
29902;SDS011;30288;50.514;9.678;2024-03-08T11:25:31;21.38;;;14.73;;
29902;SDS011;30288;50.514;9.678;2024-03-08T11:27:48;23.27;;;15.10;;
29902;SDS011;30288;50.514;9.678;2024-03-08T11:30:13;23.08;;;14.93;;
29902;SDS011;30288;50.514;9.678;2024-03-08T11:32:29;20.13;;;13.77;;
29902;SDS011;30288;50.514;9.678;2024-03-08T11:34:34;24.67;;;15.90;;
29902;SDS011;30288;50.514;9.678;2024-03-08T11:36:40;24.23;;;14.52;;
29902;SDS011;30288;50.514;9.678;2024-03-08T11:38:46;24.08;;;15.57;;
29902;SDS011;30288;50.514;9.678;2024-03-08T11:40:56;21.85;;;14.38;;
29902;SDS011;30288;50.514;9.678;2024-03-08T11:43:01;21.92;;;15.30;;
29902;SDS011;30288;50.514;9.678;2024-03-08T11:45:09;21.05;;;14.23;;
29902;SDS011;30288;50.514;9.678;2024-03-08T11:47:17;25.15;;;15.35;;
29902;SDS011;30288;50.514;9.678;2024-03-08T11:49:24;23.00;;;15.65;;
29902;SDS011;30288;50.514;9.678;2024-03-08T11:51:30;24.08;;;15.70;;
29902;SDS011;30288;50.514;9.678;2024-03-08T11:53:37;21.77;;;14.98;;
29902;SDS011;30288;50.514;9.678;2024-03-08T11:55:47;23.27;;;15.65;;
29902;SDS011;30288;50.514;9.678;2024-03-08T11:57:59;25.73;;;17.35;;
29902;SDS011;30288;50.514;9.678;2024-03-08T12:00:04;25.02;;;16.67;;
29902;SDS011;30288;50.514;9.678;2024-03-08T12:02:26;26.48;;;16.85;;
29902;SDS011;30288;50.514;9.678;2024-03-08T12:04:32;24.58;;;16.33;;
29902;SDS011;30288;50.514;9.678;2024-03-08T12:06:39;22.63;;;16.08;;
29902;SDS011;30288;50.514;9.678;2024-03-08T12:08:42;26.15;;;16.77;;
29902;SDS011;30288;50.514;9.678;2024-03-08T12:10:50;25.35;;;16.55;;
29902;SDS011;30288;50.514;9.678;2024-03-08T12:13:01;26.15;;;17.30;;
29902;SDS011;30288;50.514;9.678;2024-03-08T12:15:08;25.67;;;16.92;;
29902;SDS011;30288;50.514;9.678;2024-03-08T12:17:13;25.17;;;16.58;;
29902;SDS011;30288;50.514;9.678;2024-03-08T12:19:21;26.88;;;17.17;;
29902;SDS011;30288;50.514;9.678;2024-03-08T12:21:27;26.38;;;16.70;;
29902;SDS011;30288;50.514;9.678;2024-03-08T12:23:32;24.70;;;17.17;;
29902;SDS011;30288;50.514;9.678;2024-03-08T12:25:38;25.02;;;17.33;;